createdAt,value
2019-06-26T00:00:58.712Z,22.46
2019-06-26T00:03:32.019Z,22.46
2019-06-26T00:06:05.130Z,22.46
2019-06-26T00:08:38.016Z,22.41
2019-06-26T00:11:11.092Z,22.36
2019-06-26T00:13:44.137Z,22.34
2019-06-26T00:16:17.461Z,22.32
2019-06-26T00:18:51.458Z,22.33
2019-06-26T00:21:24.749Z,22.31
2019-06-26T00:23:57.721Z,22.32
2019-06-26T00:26:30.728Z,22.29
2019-06-26T00:29:03.842Z,22.25
2019-06-26T00:31:36.923Z,22.23
2019-06-26T00:34:10.055Z,22.21
2019-06-26T00:36:43.155Z,22.18
2019-06-26T00:39:16.473Z,22.16
2019-06-26T00:41:49.501Z,22.12
2019-06-26T00:44:22.795Z,22.11
2019-06-26T00:46:56.098Z,22.08
2019-06-26T00:49:29.203Z,22.06
2019-06-26T00:52:02.511Z,22.03
2019-06-26T00:54:35.461Z,22.02
2019-06-26T00:57:08.858Z,21.99
2019-06-26T00:59:42.039Z,21.95
2019-06-26T01:02:15.196Z,21.90
2019-06-26T01:04:50.084Z,21.88
2019-06-26T01:07:23.225Z,21.84
2019-06-26T01:09:56.454Z,21.83
2019-06-26T01:12:29.605Z,21.80
2019-06-26T01:15:02.649Z,21.79
2019-06-26T01:17:35.801Z,21.76
2019-06-26T01:20:09.319Z,21.76
2019-06-26T01:22:42.398Z,21.77
2019-06-26T01:25:15.658Z,21.75
2019-06-26T01:27:48.861Z,21.74
2019-06-26T01:30:23.059Z,21.71
2019-06-26T01:32:56.300Z,21.67
2019-06-26T01:35:29.569Z,21.69
2019-06-26T01:38:02.631Z,21.77
2019-06-26T01:40:35.917Z,21.73
2019-06-26T01:43:09.067Z,21.70
2019-06-26T01:45:43.211Z,21.68
2019-06-26T01:48:16.531Z,21.67
2019-06-26T01:50:49.614Z,21.60
2019-06-26T01:53:23.035Z,21.61
2019-06-26T01:55:56.335Z,21.57
2019-06-26T01:58:29.537Z,21.55
2019-06-26T02:01:02.712Z,21.55
2019-06-26T02:03:35.937Z,21.51
2019-06-26T02:06:09.088Z,21.50
2019-06-26T02:08:42.305Z,21.47
2019-06-26T02:11:16.199Z,21.50
2019-06-26T02:13:49.443Z,21.48
2019-06-26T02:16:22.802Z,21.51
2019-06-26T02:18:57.880Z,21.50
2019-06-26T02:21:31.407Z,21.49
2019-06-26T02:24:04.699Z,21.47
2019-06-26T02:26:39.729Z,21.43
2019-06-26T02:29:12.806Z,21.39
2019-06-26T02:31:45.701Z,21.37
2019-06-26T02:34:18.631Z,21.36
2019-06-26T02:36:51.774Z,21.37
2019-06-26T02:39:25.248Z,21.41
2019-06-26T02:42:03.644Z,21.41
2019-06-26T02:44:52.300Z,21.44
2019-06-26T02:47:19.675Z,21.44
2019-06-26T02:49:46.864Z,21.47
2019-06-26T02:52:19.942Z,21.46
2019-06-26T02:54:52.980Z,21.47
2019-06-26T02:57:26.291Z,21.47
2019-06-26T03:00:01.335Z,21.52
2019-06-26T03:02:34.339Z,21.52
2019-06-26T03:05:08.132Z,21.52
2019-06-26T03:07:41.340Z,21.59
2019-06-26T03:10:14.302Z,21.58
2019-06-26T03:12:48.409Z,21.57
2019-06-26T03:15:21.486Z,21.62
2019-06-26T03:17:55.713Z,21.60
2019-06-26T03:20:36.578Z,21.59
2019-06-26T03:23:09.601Z,21.64
2019-06-26T03:25:42.613Z,21.63
2019-06-26T03:28:15.455Z,21.71
2019-06-26T03:30:49.757Z,21.76
2019-06-26T03:33:23.453Z,21.79
2019-06-26T03:35:56.535Z,21.82
2019-06-26T03:38:29.897Z,21.85
2019-06-26T03:41:03.049Z,21.88
2019-06-26T03:43:36.130Z,21.93
2019-06-26T03:46:09.255Z,22.02
2019-06-26T03:48:42.204Z,22.07
2019-06-26T03:51:15.333Z,22.06
2019-06-26T03:53:48.301Z,22.12
2019-06-26T03:56:21.353Z,22.11
2019-06-26T03:58:54.281Z,22.11
2019-06-26T04:01:29.677Z,21.96
2019-06-26T04:04:02.998Z,22.02
2019-06-26T04:06:36.115Z,22.02
2019-06-26T04:09:09.633Z,22.07
2019-06-26T04:11:43.547Z,22.17
2019-06-26T04:14:16.430Z,22.22
2019-06-26T04:16:49.453Z,22.20
2019-06-26T04:19:22.495Z,22.29
2019-06-26T04:21:55.647Z,22.40
2019-06-26T04:24:28.490Z,22.44
2019-06-26T04:27:01.554Z,22.51
2019-06-26T04:29:34.547Z,22.62
2019-06-26T04:32:07.550Z,22.62
2019-06-26T04:34:40.603Z,22.57
2019-06-26T04:37:13.566Z,22.58
2019-06-26T04:39:46.434Z,22.76
2019-06-26T04:42:19.296Z,22.94
2019-06-26T04:44:52.179Z,23.06
2019-06-26T04:47:25.285Z,23.00
2019-06-26T04:49:58.431Z,22.97
2019-06-26T04:52:31.525Z,23.09
2019-06-26T04:55:06.130Z,23.19
2019-06-26T04:57:39.322Z,23.31
2019-06-26T05:00:13.607Z,23.47
2019-06-26T05:02:46.597Z,23.46
2019-06-26T05:05:19.589Z,23.47
2019-06-26T05:07:53.815Z,23.58
2019-06-26T05:10:26.882Z,23.72
2019-06-26T05:12:59.738Z,23.79
2019-06-26T05:15:32.739Z,23.66
2019-06-26T05:18:05.938Z,23.41
2019-06-26T05:20:38.907Z,23.53
2019-06-26T05:23:11.852Z,23.75
2019-06-26T05:25:44.806Z,24.01
2019-06-26T05:28:17.592Z,24.26
2019-06-26T05:30:50.610Z,24.24
2019-06-26T05:33:23.601Z,24.10
2019-06-26T05:35:56.897Z,24.00
2019-06-26T05:38:29.905Z,24.07
2019-06-26T05:41:03.130Z,24.28
2019-06-26T05:43:36.253Z,24.44
2019-06-26T05:46:09.199Z,24.70
2019-06-26T05:48:42.216Z,24.99
2019-06-26T05:51:15.309Z,25.08
2019-06-26T05:53:48.311Z,24.83
2019-06-26T05:56:21.170Z,24.99
2019-06-26T05:58:54.974Z,25.12
2019-06-26T06:01:27.983Z,25.26
2019-06-26T06:04:01.072Z,25.54
2019-06-26T06:06:41.515Z,25.73
2019-06-26T06:09:09.616Z,25.98
2019-06-26T06:11:42.657Z,26.04
2019-06-26T06:14:15.788Z,25.75
2019-06-26T06:16:48.735Z,25.96
2019-06-26T06:19:21.984Z,26.25
2019-06-26T06:21:56.024Z,26.38
2019-06-26T06:24:29.102Z,26.60
2019-06-26T06:27:02.556Z,26.64
2019-06-26T06:29:35.446Z,26.73
2019-06-26T06:32:08.436Z,26.92
2019-06-26T06:34:41.222Z,26.96
2019-06-26T06:37:14.236Z,26.85
2019-06-26T06:39:47.338Z,26.87
2019-06-26T06:42:20.223Z,26.93
2019-06-26T06:44:53.175Z,27.15
2019-06-26T06:47:26.288Z,27.38
2019-06-26T06:49:59.370Z,27.55
2019-06-26T06:52:32.398Z,27.32
2019-06-26T06:55:07.234Z,27.20
2019-06-26T06:57:40.275Z,27.39
2019-06-26T07:00:13.493Z,27.38
2019-06-26T07:02:46.449Z,27.57
2019-06-26T07:05:19.482Z,27.73
2019-06-26T07:07:52.500Z,27.86
2019-06-26T07:10:25.374Z,27.90
2019-06-26T07:12:58.352Z,27.78
2019-06-26T07:15:31.378Z,27.87
2019-06-26T07:18:05.352Z,27.97
2019-06-26T07:20:38.415Z,27.89
2019-06-26T07:23:11.281Z,27.79
2019-06-26T07:25:44.092Z,27.60
2019-06-26T07:28:17.283Z,27.63
2019-06-26T07:30:50.276Z,27.89
2019-06-26T07:33:23.269Z,28.02
2019-06-26T07:35:56.384Z,27.49
2019-06-26T07:38:29.419Z,27.60
2019-06-26T07:41:02.438Z,27.71
2019-06-26T07:43:35.665Z,27.74
2019-06-26T07:46:09.064Z,27.90
2019-06-26T07:48:41.961Z,27.91
2019-06-26T07:51:15.138Z,27.92
2019-06-26T07:53:48.334Z,27.90
2019-06-26T07:56:21.428Z,28.01
2019-06-26T07:58:54.822Z,28.16
2019-06-26T08:01:28.020Z,28.21
2019-06-26T08:04:00.997Z,28.30
2019-06-26T08:06:34.016Z,28.40
2019-06-26T08:09:08.183Z,28.40
2019-06-26T08:11:41.238Z,28.36
2019-06-26T08:14:14.222Z,28.24
2019-06-26T08:16:47.607Z,28.06
2019-06-26T08:19:20.935Z,28.13
2019-06-26T08:21:54.839Z,28.26
2019-06-26T08:24:27.811Z,28.40
2019-06-26T08:27:00.796Z,28.50
2019-06-26T08:29:33.788Z,28.53
2019-06-26T08:32:06.786Z,28.56
2019-06-26T08:34:39.869Z,28.52
2019-06-26T08:37:12.846Z,28.48
2019-06-26T08:39:45.816Z,28.53
2019-06-26T08:42:18.896Z,28.65
2019-06-26T08:44:52.902Z,28.71
2019-06-26T08:47:25.992Z,28.70
2019-06-26T08:49:58.990Z,28.64
2019-06-26T08:52:31.860Z,28.63
2019-06-26T08:55:09.877Z,28.67
2019-06-26T08:57:42.919Z,28.74
2019-06-26T09:00:16.113Z,28.83
2019-06-26T09:02:49.088Z,28.74
2019-06-26T09:05:22.946Z,28.76
2019-06-26T09:07:56.081Z,28.73
2019-06-26T09:10:29.139Z,28.75
2019-06-26T09:13:01.997Z,28.78
2019-06-26T09:15:34.993Z,28.81
2019-06-26T09:18:07.989Z,28.87
2019-06-26T09:20:42.273Z,28.96
2019-06-26T09:23:15.197Z,28.94
2019-06-26T09:25:48.083Z,28.91
2019-06-26T09:28:21.243Z,28.89
2019-06-26T09:30:54.158Z,28.82
2019-06-26T09:33:27.461Z,28.87
2019-06-26T09:36:00.432Z,28.92
2019-06-26T09:38:33.349Z,28.96
2019-06-26T09:41:06.213Z,28.99
2019-06-26T09:43:39.154Z,29.00
2019-06-26T09:46:12.089Z,29.01
2019-06-26T09:48:52.662Z,28.98
2019-06-26T09:51:19.792Z,28.98
2019-06-26T09:53:52.825Z,28.97
2019-06-26T09:56:25.917Z,28.99
2019-06-26T09:58:59.177Z,28.90
2019-06-26T10:01:32.388Z,28.95
2019-06-26T10:04:05.175Z,28.96
2019-06-26T10:06:38.128Z,28.98
2019-06-26T10:09:11.148Z,28.96
2019-06-26T10:11:44.426Z,28.98
2019-06-26T10:14:17.453Z,28.99
2019-06-26T10:16:50.343Z,29.02
2019-06-26T10:19:23.461Z,29.08
2019-06-26T10:21:56.648Z,29.13
2019-06-26T10:24:29.735Z,29.21
2019-06-26T10:27:03.146Z,29.22
2019-06-26T10:29:36.417Z,29.23
2019-06-26T10:32:09.357Z,29.29
2019-06-26T10:34:42.293Z,29.33
2019-06-26T10:37:15.293Z,29.35
2019-06-26T10:39:48.327Z,29.34
2019-06-26T10:42:21.280Z,29.41
2019-06-26T10:44:55.409Z,29.43
2019-06-26T10:47:28.609Z,29.35
2019-06-26T10:50:02.038Z,29.44
2019-06-26T10:52:35.586Z,29.53
2019-06-26T10:55:10.189Z,29.56
2019-06-26T10:57:43.163Z,29.59
2019-06-26T11:00:19.452Z,29.66
2019-06-26T11:02:52.485Z,29.73
2019-06-26T11:05:25.344Z,29.73
2019-06-26T11:07:58.336Z,29.60
2019-06-26T11:10:32.766Z,29.54
2019-06-26T11:13:05.780Z,29.61
2019-06-26T11:15:38.814Z,29.70
2019-06-26T11:18:11.719Z,29.73
2019-06-26T11:20:44.736Z,29.72
2019-06-26T11:23:17.980Z,29.78
2019-06-26T11:25:52.076Z,29.73
2019-06-26T11:28:25.197Z,29.81
2019-06-26T11:30:59.410Z,29.92
2019-06-26T11:33:32.632Z,30.04
2019-06-26T11:36:05.858Z,30.15
2019-06-26T11:38:38.900Z,30.13
2019-06-26T11:41:12.127Z,30.19
2019-06-26T11:43:45.449Z,30.31
2019-06-26T11:46:18.394Z,30.38
2019-06-26T11:48:51.479Z,30.33
2019-06-26T11:51:24.568Z,30.35
2019-06-26T11:53:59.097Z,30.27
2019-06-26T11:56:33.077Z,30.33
2019-06-26T11:59:05.940Z,30.42
2019-06-26T12:01:39.081Z,30.48
2019-06-26T12:04:12.115Z,30.51
2019-06-26T12:06:46.256Z,30.49
2019-06-26T12:09:19.776Z,30.50
2019-06-26T12:11:52.835Z,30.58
2019-06-26T12:14:42.026Z,30.65
2019-06-26T12:17:14.998Z,30.68
2019-06-26T12:20:17.977Z,30.69
2019-06-26T12:22:57.421Z,30.79
2019-06-26T12:25:46.491Z,30.85
2019-06-26T12:28:35.473Z,30.73
2019-06-26T12:31:24.958Z,30.44
2019-06-26T12:33:57.969Z,30.40
2019-06-26T12:36:31.077Z,30.41
2019-06-26T12:39:06.703Z,30.52
2019-06-26T12:41:39.841Z,30.47
2019-06-26T12:44:29.366Z,30.41
2019-06-26T12:47:18.841Z,30.46
2019-06-26T12:50:08.226Z,30.56
2019-06-26T12:52:56.883Z,30.61
2019-06-26T12:55:46.087Z,30.40
2019-06-26T12:58:35.484Z,30.41
2019-06-26T13:01:25.294Z,30.43
2019-06-26T13:04:14.537Z,30.43
2019-06-26T13:06:47.756Z,30.38
2019-06-26T13:09:20.735Z,30.39
2019-06-26T13:11:53.947Z,30.35
2019-06-26T13:14:26.966Z,30.37
2019-06-26T13:17:00.044Z,30.45
2019-06-26T13:19:34.192Z,30.44
2019-06-26T13:22:07.381Z,30.42
2019-06-26T13:24:43.828Z,30.39
2019-06-26T13:27:14.883Z,30.18
2019-06-26T13:29:47.891Z,30.11
2019-06-26T13:32:20.970Z,30.20
2019-06-26T13:34:54.091Z,30.28
2019-06-26T13:37:26.962Z,30.29
2019-06-26T13:39:59.815Z,30.31
2019-06-26T13:42:32.673Z,30.29
2019-06-26T13:45:07.600Z,30.24
2019-06-26T13:47:40.461Z,30.25
2019-06-26T13:50:13.508Z,30.27
2019-06-26T13:52:46.521Z,30.27
2019-06-26T13:55:19.462Z,30.26
2019-06-26T13:57:52.475Z,30.25
2019-06-26T14:00:25.668Z,30.21
2019-06-26T14:02:58.739Z,30.18
2019-06-26T14:05:31.682Z,30.13
2019-06-26T14:08:04.543Z,30.13
2019-06-26T14:10:37.483Z,30.17
2019-06-26T14:13:10.631Z,30.20
2019-06-26T14:15:43.483Z,30.22
2019-06-26T14:18:16.863Z,30.15
2019-06-26T14:20:49.987Z,30.13
2019-06-26T14:23:23.090Z,30.11
2019-06-26T14:25:57.204Z,30.11
2019-06-26T14:28:30.209Z,30.11
2019-06-26T14:31:03.159Z,30.05
2019-06-26T14:33:49.350Z,30.03
2019-06-26T14:36:23.419Z,30.02
2019-06-26T14:38:57.980Z,30.00
2019-06-26T14:41:31.073Z,29.93
2019-06-26T14:44:04.043Z,29.79
2019-06-26T14:46:37.002Z,29.62
2019-06-26T14:49:10.018Z,29.66
2019-06-26T14:51:47.385Z,29.69
2019-06-26T14:54:17.537Z,29.68
2019-06-26T14:56:50.395Z,29.68
2019-06-26T14:59:23.346Z,29.65
2019-06-26T15:01:56.412Z,29.67
2019-06-26T15:04:29.569Z,29.68
2019-06-26T15:07:02.591Z,29.63
2019-06-26T15:09:35.542Z,29.59
2019-06-26T15:12:08.781Z,29.59
2019-06-26T15:14:42.135Z,29.56
2019-06-26T15:17:15.254Z,29.48
2019-06-26T15:19:48.159Z,29.49
2019-06-26T15:22:22.078Z,29.51
2019-06-26T15:24:54.870Z,29.53
2019-06-26T15:27:27.844Z,29.50
2019-06-26T15:30:00.903Z,29.51
2019-06-26T15:32:33.870Z,29.49
2019-06-26T15:35:08.225Z,29.47
2019-06-26T15:37:43.912Z,29.43
2019-06-26T15:40:15.526Z,29.43
2019-06-26T15:42:49.151Z,29.45
2019-06-26T15:45:22.264Z,29.46
2019-06-26T15:47:55.290Z,29.43
2019-06-26T15:50:28.548Z,29.42
2019-06-26T15:53:01.498Z,29.36
2019-06-26T15:55:34.443Z,29.32
2019-06-26T15:58:07.370Z,29.32
2019-06-26T16:00:40.244Z,29.32
2019-06-26T16:03:14.367Z,29.25
2019-06-26T16:05:47.243Z,29.22
2019-06-26T16:08:20.316Z,29.20
2019-06-26T16:10:53.345Z,29.21
2019-06-26T16:13:26.426Z,29.20
2019-06-26T16:15:59.603Z,29.20
2019-06-26T16:18:34.304Z,29.17
2019-06-26T16:21:07.385Z,29.14
2019-06-26T16:23:40.265Z,29.07
2019-06-26T16:26:13.748Z,29.02
2019-06-26T16:28:46.609Z,28.96
2019-06-26T16:31:21.238Z,28.91
2019-06-26T16:33:54.349Z,28.87
2019-06-26T16:36:27.203Z,28.80
2019-06-26T16:39:00.235Z,28.72
2019-06-26T16:41:33.465Z,28.69
2019-06-26T16:44:06.933Z,28.64
2019-06-26T16:46:39.868Z,28.59
2019-06-26T16:49:12.679Z,28.54
2019-06-26T16:51:45.740Z,28.50
2019-06-26T16:54:18.760Z,28.45
2019-06-26T16:56:53.460Z,28.42
2019-06-26T16:59:26.458Z,28.39
2019-06-26T17:01:59.398Z,28.35
2019-06-26T17:04:32.261Z,28.31
2019-06-26T17:07:05.111Z,28.31
2019-06-26T17:09:38.400Z,28.28
2019-06-26T17:12:12.114Z,28.27
2019-06-26T17:14:45.115Z,28.23
2019-06-26T17:17:17.987Z,28.23
2019-06-26T17:19:50.965Z,28.19
2019-06-26T17:22:24.095Z,28.14
2019-06-26T17:24:57.121Z,28.10
2019-06-26T17:27:30.046Z,28.04
2019-06-26T17:30:03.140Z,28.02
2019-06-26T17:32:36.099Z,27.99
2019-06-26T17:35:09.077Z,27.96
2019-06-26T17:37:42.006Z,27.93
2019-06-26T17:40:15.738Z,27.88
2019-06-26T17:42:49.181Z,27.86
2019-06-26T17:45:23.635Z,27.84
2019-06-26T17:47:56.576Z,27.81
2019-06-26T17:50:31.381Z,27.74
2019-06-26T17:53:20.474Z,27.69
2019-06-26T17:55:41.202Z,27.68
2019-06-26T17:58:14.139Z,27.62
2019-06-26T18:00:48.884Z,27.59
2019-06-26T18:03:21.881Z,27.54
2019-06-26T18:05:54.875Z,27.44
2019-06-26T18:08:28.015Z,27.31
2019-06-26T18:11:04.686Z,27.22
2019-06-26T18:13:38.928Z,27.13
2019-06-26T18:16:12.312Z,27.03
2019-06-26T18:18:48.119Z,26.96
2019-06-26T18:21:22.409Z,26.88
2019-06-26T18:23:57.138Z,26.77
2019-06-26T18:26:30.277Z,26.67
2019-06-26T18:29:03.823Z,26.57
2019-06-26T18:31:36.957Z,26.52
2019-06-26T18:34:11.787Z,26.41
2019-06-26T18:36:44.929Z,26.35
2019-06-26T18:39:18.069Z,26.25
2019-06-26T18:41:51.086Z,26.22
2019-06-26T18:44:24.041Z,26.20
2019-06-26T18:46:57.086Z,26.14
2019-06-26T18:49:30.550Z,26.08
2019-06-26T18:52:03.752Z,26.00
2019-06-26T18:54:38.881Z,25.94
2019-06-26T18:57:11.934Z,25.85
2019-06-26T18:59:44.953Z,25.82
2019-06-26T19:02:18.048Z,25.75
2019-06-26T19:04:54.810Z,25.69
2019-06-26T19:07:27.771Z,25.64
2019-06-26T19:10:00.851Z,25.59
2019-06-26T19:12:34.331Z,25.57
2019-06-26T19:15:07.593Z,25.52
2019-06-26T19:17:42.698Z,25.48
2019-06-26T19:20:17.495Z,25.44
2019-06-26T19:22:50.422Z,25.39
2019-06-26T19:25:23.420Z,25.34
2019-06-26T19:27:56.780Z,25.30
2019-06-26T19:30:30.948Z,25.27
2019-06-26T19:33:03.983Z,25.24
2019-06-26T19:35:36.991Z,25.19
2019-06-26T19:38:09.951Z,25.13
2019-06-26T19:40:43.171Z,25.11
2019-06-26T19:43:16.291Z,25.09
2019-06-26T19:45:49.314Z,25.06
2019-06-26T19:48:22.366Z,25.02
2019-06-26T19:50:55.509Z,24.99
2019-06-26T19:53:30.167Z,24.93
2019-06-26T19:56:03.244Z,24.90
2019-06-26T19:58:36.311Z,24.86
2019-06-26T20:01:09.327Z,24.83
2019-06-26T20:03:42.471Z,24.81
2019-06-26T20:06:15.345Z,24.78
2019-06-26T20:08:54.562Z,24.72
2019-06-26T20:11:22.768Z,24.67
2019-06-26T20:13:55.647Z,24.65
2019-06-26T20:16:28.580Z,24.62
2019-06-26T20:19:01.590Z,24.58
2019-06-26T20:21:35.556Z,24.53
2019-06-26T20:24:08.642Z,24.49
2019-06-26T20:26:41.662Z,24.46
2019-06-26T20:29:14.679Z,24.43
2019-06-26T20:31:47.790Z,24.37
2019-06-26T20:34:20.663Z,24.34
2019-06-26T20:36:53.530Z,24.31
2019-06-26T20:39:26.481Z,24.26
2019-06-26T20:41:59.354Z,24.20
2019-06-26T20:44:32.378Z,24.17
2019-06-26T20:47:05.297Z,24.15
2019-06-26T20:49:52.266Z,24.10
2019-06-26T20:52:12.762Z,24.08
2019-06-26T20:54:59.836Z,24.04
2019-06-26T20:57:20.272Z,24.02
2019-06-26T20:59:53.390Z,24.00
2019-06-26T21:02:26.563Z,23.96
2019-06-26T21:04:59.457Z,23.92
2019-06-26T21:07:32.389Z,23.89
2019-06-26T21:10:05.911Z,23.90
2019-06-26T21:12:38.936Z,23.90
2019-06-26T21:15:12.007Z,23.85
2019-06-26T21:17:46.398Z,23.80
2019-06-26T21:20:19.441Z,23.76
2019-06-26T21:22:54.290Z,23.73
2019-06-26T21:25:27.227Z,23.68
2019-06-26T21:28:00.199Z,23.66
2019-06-26T21:30:33.282Z,23.61
2019-06-26T21:33:06.462Z,23.59
2019-06-26T21:35:39.409Z,23.58
2019-06-26T21:38:12.321Z,23.56
2019-06-26T21:40:45.348Z,23.54
2019-06-26T21:43:18.366Z,23.54
2019-06-26T21:45:52.239Z,23.55
2019-06-26T21:48:25.128Z,23.57
2019-06-26T21:50:58.084Z,23.55
2019-06-26T21:53:31.177Z,23.54
2019-06-26T21:56:22.241Z,23.54
2019-06-26T21:59:12.792Z,23.53
2019-06-26T22:02:03.292Z,23.50
2019-06-26T22:04:53.269Z,23.46
2019-06-26T22:07:27.775Z,23.42
2019-06-26T22:10:03.022Z,23.39
2019-06-26T22:12:38.559Z,23.41
2019-06-26T22:15:11.995Z,23.53
2019-06-26T22:17:45.054Z,23.50
2019-06-26T22:20:18.279Z,23.45
2019-06-26T22:22:51.325Z,23.40
2019-06-26T22:25:24.736Z,23.37
2019-06-26T22:27:57.913Z,23.34
2019-06-26T22:30:31.307Z,23.30
2019-06-26T22:33:04.420Z,23.23
2019-06-26T22:35:37.999Z,23.19
2019-06-26T22:38:11.088Z,23.18
2019-06-26T22:40:44.075Z,23.15
2019-06-26T22:43:17.212Z,23.14
2019-06-26T22:45:52.817Z,23.13
2019-06-26T22:48:26.116Z,23.12
2019-06-26T22:50:59.610Z,23.09
2019-06-26T22:53:32.815Z,23.09
2019-06-26T22:56:08.081Z,23.03
2019-06-26T22:58:40.925Z,22.97
2019-06-26T23:01:13.781Z,22.97
2019-06-26T23:03:46.797Z,22.95
2019-06-26T23:06:20.033Z,22.93
2019-06-26T23:08:52.977Z,22.89
2019-06-26T23:11:26.167Z,22.85
2019-06-26T23:13:59.770Z,22.85
2019-06-26T23:16:33.021Z,22.86
2019-06-26T23:19:05.961Z,22.85
2019-06-26T23:21:39.348Z,22.84
2019-06-26T23:24:12.600Z,22.78
2019-06-26T23:26:46.138Z,22.74
2019-06-26T23:29:19.086Z,22.71
2019-06-26T23:31:52.228Z,22.70
2019-06-26T23:34:25.236Z,22.81
2019-06-26T23:36:58.394Z,22.83
2019-06-26T23:39:31.409Z,22.80
2019-06-26T23:42:04.989Z,22.78
2019-06-26T23:44:37.995Z,22.74
2019-06-26T23:47:11.103Z,22.67
2019-06-26T23:49:44.103Z,22.64
2019-06-26T23:52:18.045Z,22.61
2019-06-26T23:54:51.104Z,22.60
2019-06-26T23:57:24.208Z,22.57
2019-06-26T23:59:57.216Z,22.57
